Time;durP1;ratioP1;P1;durP2;ratioP2;P2;SDS_P1;SDS_P2;PMS_P1;PMS_P2;Temp;Humidity;BMP_temperature;BMP_pressure;BME280_temperature;BME280_humidity;BME280_pressure;Samples;Min_cycle;Max_cycle;Signal;HPM_P1;HPM_P2
2021/12/31 00:01:44;;;;;;;14.50;4.17;;;;;;;-146.64;100.00;44888.00;5032997;28;20044;-78
2021/12/31 00:04:10;;;;;;;9.55;3.67;;;;;;;-146.64;100.00;45010.97;5022992;28;20048;-78
2021/12/31 00:06:37;;;;;;;8.47;3.23;;;;;;;-146.64;100.00;44535.50;5023150;28;20032;-78
2021/12/31 00:09:05;;;;;;;12.23;3.83;;;;;;;-146.64;100.00;43719.97;5018323;28;20062;-79
2021/12/31 00:11:30;;;;;;;11.00;3.72;;;;;;;-146.64;100.00;43226.22;5006909;28;20037;-78
2021/12/31 00:13:58;;;;;;;13.23;3.57;;;;;;;-146.64;100.00;43048.00;5001648;28;20029;-78
2021/12/31 00:16:23;;;;;;;14.38;3.30;;;;;;;-146.64;100.00;43511.00;5020187;28;20045;-77
2021/12/31 00:18:53;;;;;;;12.98;3.30;;;;;;;-146.64;100.00;43570.41;5014785;28;20025;-79
2021/12/31 00:21:18;;;;;;;18.08;3.42;;;;;;;-146.64;100.00;43343.00;5008193;28;20030;-78
2021/12/31 00:23:45;;;;;;;9.57;3.30;;;;;;;-146.64;100.00;43834.72;5024350;28;20077;-79
2021/12/31 00:26:11;;;;;;;9.35;3.35;;;;;;;-146.64;100.00;43474.13;5015534;28;20025;-79
2021/12/31 00:28:36;;;;;;;13.00;3.17;;;;;;;-146.64;100.00;44043.72;5024627;28;20046;-79
2021/12/31 00:31:02;;;;;;;8.47;3.20;;;;;;;-146.64;100.00;42451.91;5021647;28;20053;-79
2021/12/31 00:33:27;;;;;;;14.73;3.67;;;;;;;-146.64;100.00;41999.28;5023832;28;20093;-79
2021/12/31 00:35:52;;;;;;;10.20;3.03;;;;;;;-146.64;100.00;42482.63;5010893;28;20030;-79
2021/12/31 00:38:18;;;;;;;7.07;3.10;;;;;;;-146.64;100.00;42140.59;5024278;28;20537;-79
2021/12/31 00:40:44;;;;;;;8.07;2.60;;;;;;;-146.64;100.00;41513.94;5007828;28;20411;-78
2021/12/31 00:43:13;;;;;;;8.83;3.17;;;;;;;-146.64;100.00;41081.88;5005639;28;20037;-79
2021/12/31 00:45:41;;;;;;;8.25;3.10;;;;;;;-146.64;100.00;40944.72;5023510;28;20434;-79
2021/12/31 00:48:08;;;;;;;8.85;3.35;;;;;;;-146.64;100.00;41139.22;5023294;28;20416;-79
2021/12/31 00:50:34;;;;;;;6.35;3.03;;;;;;;-146.64;100.00;41053.22;5025882;28;20033;-78
2021/12/31 00:53:00;;;;;;;8.03;2.70;;;;;;;-146.64;100.00;40932.41;5023984;28;20018;-79
2021/12/31 00:55:25;;;;;;;10.37;2.90;;;;;;;-146.64;100.00;40737.91;5023702;28;20045;-78
2021/12/31 00:57:53;;;;;;;8.67;2.80;;;;;;;-146.64;100.00;40651.94;5023964;28;20034;-79
2021/12/31 01:00:19;;;;;;;9.23;2.63;;;;;;;-146.64;100.00;40574.13;5024116;28;20026;-79
2021/12/31 01:02:46;;;;;;;8.90;3.17;;;;;;;-146.64;100.00;40510.66;5029412;28;20080;-79
2021/12/31 01:05:13;;;;;;;7.95;3.35;;;;;;;-146.64;100.00;40533.19;5019741;28;20109;-79
2021/12/31 01:07:40;;;;;;;9.45;3.00;;;;;;;-146.64;100.00;40443.13;5010062;28;20026;-79
2021/12/31 01:10:12;;;;;;;6.75;2.58;;;;;;;-146.64;100.00;40463.59;5042979;28;20033;-79
2021/12/31 01:12:39;;;;;;;7.32;2.50;;;;;;;-146.64;100.00;40482.00;5044600;28;20021;-78
2021/12/31 01:15:09;;;;;;;5.85;2.47;;;;;;;-146.64;100.00;40428.78;5039627;28;20473;-79
2021/12/31 01:20:05;;;;;;;12.18;2.80;;;;;;;-146.64;100.00;40406.25;5041976;28;20026;-79
2021/12/31 01:22:33;;;;;;;4.32;2.30;;;;;;;-146.64;100.00;40529.09;5025035;28;20032;-79
2021/12/31 01:24:59;;;;;;;6.95;2.45;;;;;;;-146.64;100.00;40492.25;5026370;28;20176;-79
2021/12/31 01:27:26;;;;;;;6.03;2.63;;;;;;;-146.64;100.00;40451.31;5026500;28;20043;-79
2021/12/31 01:29:52;;;;;;;8.70;2.65;;;;;;;-146.64;100.00;40492.25;5044223;28;20037;-79
2021/12/31 01:32:17;;;;;;;8.63;2.67;;;;;;;-146.64;100.00;40336.66;4996327;28;20032;-80
2021/12/31 01:34:46;;;;;;;7.13;2.53;;;;;;;-146.64;100.00;40422.63;5026123;28;20028;-77
2021/12/31 01:37:11;;;;;;;4.10;2.30;;;;;;;-146.64;100.00;40455.41;5026866;28;20025;-78
2021/12/31 01:39:37;;;;;;;5.63;2.47;;;;;;;-146.64;100.00;40486.09;5041617;28;20150;-78
2021/12/31 01:42:07;;;;;;;7.87;2.77;;;;;;;-146.64;100.00;40484.06;5009606;28;20064;-78
2021/12/31 01:44:39;;;;;;;12.55;2.55;;;;;;;-146.64;100.00;40430.81;5008384;28;20037;-77
2021/12/31 01:47:10;;;;;;;8.52;3.00;;;;;;;-146.64;100.00;40422.63;5020267;28;20032;-79
2021/12/31 01:49:38;;;;;;;7.13;2.35;;;;;;;-146.64;100.00;40451.31;5026555;28;20028;-77
2021/12/31 01:52:06;;;;;;;13.32;2.53;;;;;;;-146.64;100.00;40508.63;5009195;28;20045;-78
2021/12/31 01:54:33;;;;;;;8.32;2.58;;;;;;;-146.64;100.00;40557.75;5025953;28;20913;-78
2021/12/31 01:57:00;;;;;;;;;;;;;;;-146.64;100.00;40645.78;5002895;28;20033;-78
2021/12/31 01:59:26;;;;;;;9.07;2.90;;;;;;;-146.64;100.00;40551.63;5021231;28;19963;-79
2021/12/31 02:01:52;;;;;;;12.40;2.90;;;;;;;-146.64;100.00;40473.81;5008741;28;20029;-76
2021/12/31 02:04:18;;;;;;;7.93;2.40;;;;;;;-146.64;100.00;40342.81;5003282;28;20072;-76
2021/12/31 02:06:43;;;;;;;10.93;3.10;;;;;;;-146.64;100.00;40467.69;5023005;28;20025;-76
2021/12/31 02:09:09;;;;;;;11.47;2.97;;;;;;;-146.64;100.00;40443.13;5022374;28;20049;-76
2021/12/31 02:11:34;;;;;;;10.63;2.53;;;;;;;-146.64;100.00;40410.34;5021936;28;20025;-76
2021/12/31 02:14:02;;;;;;;9.00;2.67;;;;;;;-146.64;100.00;40434.91;5013267;28;20021;-76
2021/12/31 02:16:31;;;;;;;11.95;2.75;;;;;;;-146.64;100.00;40479.97;5004948;28;20128;-76
2021/12/31 02:19:09;;;;;;;6.78;2.83;;;;;;;-146.64;100.00;40613.03;5022205;28;20033;-75
2021/12/31 02:21:34;;;;;;;10.55;3.10;;;;;;;-146.64;100.00;40529.09;5022174;28;20489;-77
2021/12/31 02:24:05;;;;;;;12.23;2.97;;;;;;;-146.64;100.00;40561.84;5006633;28;20053;-76
2021/12/31 02:26:31;;;;;;;9.40;2.63;;;;;;;-146.64;100.00;40500.44;5023607;28;20037;-77
2021/12/31 02:28:56;;;;;;;8.77;2.47;;;;;;;-146.64;100.00;40484.06;5023595;28;20024;-76
2021/12/31 02:31:22;;;;;;;8.17;2.93;;;;;;;-146.64;100.00;40508.63;5005621;28;20378;-77
2021/12/31 02:33:47;;;;;;;8.10;2.60;;;;;;;-146.64;100.00;40484.06;5019685;28;20056;-75
2021/12/31 02:36:12;;;;;;;9.27;3.20;;;;;;;-146.64;100.00;40500.44;5018892;28;20037;-74
2021/12/31 02:38:38;;;;;;;12.60;4.00;;;;;;;-146.64;100.00;40656.03;5039976;28;20718;-75
2021/12/31 02:41:03;;;;;;;12.30;3.27;;;;;;;-146.64;100.00;40545.47;5033604;28;20018;-76
2021/12/31 02:43:29;;;;;;;9.20;2.60;;;;;;;-146.64;100.00;40760.44;5003413;28;20025;-76
2021/12/31 02:45:54;;;;;;;8.73;3.20;;;;;;;-146.64;100.00;40543.44;5021217;28;20025;-76
2021/12/31 02:48:25;;;;;;;5.90;2.40;;;;;;;-146.64;100.00;40737.91;5039245;28;20029;-76
2021/12/31 02:50:53;;;;;;;9.48;2.72;;;;;;;-146.64;100.00;40590.50;5005871;28;20029;-75
2021/12/31 02:53:24;;;;;;;7.72;2.78;;;;;;;-146.64;100.00;40520.91;5005000;28;20718;-76
2021/12/31 02:55:58;;;;;;;7.45;2.17;;;;;;;-146.64;100.00;40531.13;5019409;28;20029;-75
2021/12/31 02:58:23;;;;;;;13.13;2.55;;;;;;;-146.64;100.00;40570.03;5020950;28;20026;-75
2021/12/31 03:00:48;;;;;;;11.10;2.67;;;;;;;-146.64;100.00;40570.03;5005284;28;20098;-75
2021/12/31 03:03:14;;;;;;;10.83;3.07;;;;;;;-146.64;100.00;40512.72;5039070;28;20048;-75
2021/12/31 03:05:40;;;;;;;6.13;2.33;;;;;;;-146.64;100.00;40518.84;5021706;28;20048;-75
2021/12/31 03:08:08;;;;;;;7.65;2.00;;;;;;;-146.64;100.00;40420.59;5003448;28;20097;-76
2021/12/31 03:10:34;;;;;;;12.48;2.75;;;;;;;-146.64;100.00;40594.59;5039371;28;20021;-75
2021/12/31 03:12:59;;;;;;;15.87;2.43;;;;;;;-146.64;100.00;40643.75;5020525;28;20162;-75
2021/12/31 03:15:25;;;;;;;9.07;2.40;;;;;;;-146.64;100.00;40451.31;5012216;28;20033;-76
2021/12/31 03:17:52;;;;;;;7.93;2.23;;;;;;;-146.64;100.00;40531.13;5009699;28;20114;-75
2021/12/31 03:20:26;;;;;;;9.85;2.72;;;;;;;-146.64;100.00;40500.44;4991512;28;20091;-75
2021/12/31 03:22:52;;;;;;;7.40;3.10;;;;;;;-146.64;100.00;40551.63;5022044;28;20053;-75
2021/12/31 03:25:18;;;;;;;13.10;2.43;;;;;;;-146.64;100.00;40496.34;5021306;28;20400;-76
2021/12/31 03:27:43;;;;;;;8.13;2.87;;;;;;;-146.64;100.00;40434.91;5011705;28;20049;-75
2021/12/31 03:30:10;;;;;;;10.63;2.63;;;;;;;-146.64;100.00;40520.91;5021140;28;20045;-75
2021/12/31 03:32:37;;;;;;;12.52;2.53;;;;;;;-146.64;100.00;40692.88;5028939;28;20101;-75
2021/12/31 03:35:05;;;;;;;5.85;2.25;;;;;;;-146.64;100.00;40473.81;5021705;28;20029;-75
2021/12/31 03:37:30;;;;;;;12.35;2.60;;;;;;;-146.64;100.00;40473.81;5030812;28;20084;-75
2021/12/31 03:39:56;;;;;;;7.07;2.33;;;;;;;-146.64;100.00;40467.69;5035911;28;20029;-75
2021/12/31 03:42:24;;;;;;;10.43;2.17;;;;;;;-146.64;100.00;40430.81;5007695;28;20116;-75
2021/12/31 03:44:50;;;;;;;7.68;2.05;;;;;;;-146.64;100.00;40353.03;5038631;28;20462;-75
2021/12/31 03:47:15;;;;;;;7.47;2.30;;;;;;;-146.64;100.00;40361.22;4992694;28;20033;-74
2021/12/31 03:49:40;;;;;;;8.33;2.70;;;;;;;-146.64;100.00;40357.13;5021018;28;20029;-75
2021/12/31 03:52:06;;;;;;;9.80;3.37;;;;;;;-146.64;100.00;40328.47;5023590;28;20099;-75
2021/12/31 03:54:31;;;;;;;7.87;2.50;;;;;;;-146.64;100.00;40373.50;5009304;28;20087;-75
2021/12/31 03:56:56;;;;;;;10.50;3.03;;;;;;;-146.64;100.00;40303.91;5022265;28;20541;-76
2021/12/31 03:59:22;;;;;;;9.63;2.60;;;;;;;-146.64;100.00;40283.44;5012269;28;20068;-75
2021/12/31 04:01:47;;;;;;;8.63;2.70;;;;;;;-146.64;100.00;40279.34;5023963;28;20120;-76
2021/12/31 04:04:14;;;;;;;8.70;2.53;;;;;;;-146.64;100.00;40285.47;5024980;28;20025;-75
2021/12/31 04:06:40;;;;;;;;;;;;;;;-146.64;100.00;40299.81;5024903;28;20039;-75
2021/12/31 04:09:06;;;;;;;5.88;2.15;;;;;;;-146.64;100.00;40234.31;5025377;28;19980;-75
2021/12/31 04:11:31;;;;;;;9.03;2.40;;;;;;;-146.64;100.00;40205.66;5025619;28;20072;-75
2021/12/31 04:13:56;;;;;;;7.57;2.60;;;;;;;-146.64;100.00;40209.75;5024629;28;20041;-75
2021/12/31 04:16:21;;;;;;;9.47;3.00;;;;;;;-146.64;100.00;40301.84;5022314;28;20037;-75
2021/12/31 04:18:47;;;;;;;6.00;2.40;;;;;;;-146.64;100.00;40168.81;5031545;28;20091;-75
2021/12/31 04:21:16;;;;;;;9.67;2.70;;;;;;;-146.64;100.00;40256.81;5008107;28;20029;-75
2021/12/31 04:24:04;;;;;;;8.88;2.30;;;;;;;-146.64;100.00;40252.72;5025180;28;20089;-76
2021/12/31 04:26:29;;;;;;;6.97;2.88;;;;;;;-146.64;100.00;40217.94;5040621;28;20025;-76
2021/12/31 04:28:55;;;;;;;14.37;3.30;;;;;;;-146.64;100.00;40197.47;5023225;28;20037;-75
2021/12/31 04:31:21;;;;;;;6.17;2.30;;;;;;;-146.64;100.00;40123.75;5007187;28;20078;-75
2021/12/31 04:33:46;;;;;;;9.07;2.80;;;;;;;-146.64;100.00;40146.28;5027467;28;20473;-75
2021/12/31 04:36:13;;;;;;;9.70;2.40;;;;;;;-146.64;100.00;40226.13;5005319;28;20036;-76
2021/12/31 04:38:38;;;;;;;;;;;;;;;-146.64;100.00;40164.72;5024762;28;20104;-76
2021/12/31 04:41:04;;;;;;;9.18;2.33;;;;;;;-146.64;100.00;40095.09;5007050;28;19955;-76
2021/12/31 04:43:29;;;;;;;6.03;2.47;;;;;;;-146.64;100.00;40078.72;5007929;28;20025;-76
2021/12/31 04:45:54;;;;;;;11.60;2.70;;;;;;;-146.64;100.00;40082.81;5010515;28;20443;-76
2021/12/31 04:48:20;;;;;;;5.60;2.57;;;;;;;-146.64;100.00;40084.88;5024110;28;20062;-76
2021/12/31 04:50:46;;;;;;;9.93;3.17;;;;;;;-146.64;100.00;40037.78;5023984;28;20149;-76
2021/12/31 04:53:11;;;;;;;6.77;2.40;;;;;;;-146.64;100.00;40066.44;5027166;28;20432;-76
2021/12/31 04:55:36;;;;;;;4.00;1.93;;;;;;;-146.64;100.00;39984.56;5039989;28;20034;-76
2021/12/31 04:58:03;;;;;;;8.07;2.83;;;;;;;-146.64;100.00;40086.91;5006451;28;20047;-76
2021/12/31 05:00:28;;;;;;;8.85;2.42;;;;;;;-146.64;100.00;40041.88;5024490;28;20056;-79
2021/12/31 05:02:54;;;;;;;11.17;2.97;;;;;;;-146.64;100.00;39960.00;5026488;28;20041;-78
2021/12/31 05:05:20;;;;;;;7.17;2.43;;;;;;;-146.64;100.00;40060.31;5039240;28;20071;-77
2021/12/31 05:07:46;;;;;;;5.97;2.55;;;;;;;-146.64;100.00;40084.88;5025916;28;20036;-77
2021/12/31 05:10:12;;;;;;;10.20;2.60;;;;;;;-146.64;100.00;40003.00;5014414;28;20057;-79
2021/12/31 05:12:38;;;;;;;;;;;;;;;-146.64;100.00;40019.38;5011130;28;20029;-77
2021/12/31 05:15:09;;;;;;;8.85;2.40;;;;;;;-146.64;100.00;40021.41;5010424;28;19919;-77
2021/12/31 05:17:35;;;;;;;5.30;2.50;;;;;;;-146.64;100.00;39996.84;5014522;28;20026;-78
2021/12/31 05:20:02;;;;;;;6.57;2.43;;;;;;;-146.64;100.00;40013.22;5020435;28;20445;-78
2021/12/31 05:22:27;;;;;;;6.82;2.50;;;;;;;-146.64;100.00;40074.63;5007354;28;20033;-77
2021/12/31 05:24:53;;;;;;;4.30;1.87;;;;;;;-146.64;100.00;40095.09;5026394;28;20060;-78
2021/12/31 05:27:18;;;;;;;7.90;2.13;;;;;;;-146.64;100.00;40084.88;5026524;28;20060;-78
2021/12/31 05:29:44;;;;;;;8.80;2.80;;;;;;;-146.64;100.00;40054.16;5009275;28;20040;-78
2021/12/31 05:32:09;;;;;;;5.43;2.60;;;;;;;-146.64;100.00;40029.59;5026296;28;20412;-78
2021/12/31 05:34:37;;;;;;;9.55;2.22;;;;;;;-146.64;100.00;40148.31;5018480;28;20478;-78
2021/12/31 05:37:03;;;;;;;7.43;2.25;;;;;;;-146.64;100.00;40080.78;5023876;28;20032;-77
2021/12/31 05:39:29;;;;;;;5.87;2.27;;;;;;;-146.64;100.00;40082.81;5013368;28;20474;-78
2021/12/31 05:41:54;;;;;;;5.60;2.55;;;;;;;-146.64;100.00;40070.53;5009899;28;20026;-77
2021/12/31 05:44:20;;;;;;;10.57;2.50;;;;;;;-146.64;100.00;40078.72;5043587;28;20073;-77
2021/12/31 05:46:49;;;;;;;10.20;2.30;;;;;;;-146.64;100.00;40115.56;5025634;28;20049;-77
2021/12/31 05:49:14;;;;;;;5.32;2.00;;;;;;;-146.64;100.00;40125.81;5013147;28;20029;-77
2021/12/31 05:51:40;;;;;;;4.43;2.30;;;;;;;-146.64;100.00;40082.81;5026262;28;20025;-77
2021/12/31 05:54:05;;;;;;;6.10;2.20;;;;;;;-146.64;100.00;40140.13;5026562;28;20040;-77
2021/12/31 05:56:31;;;;;;;8.30;2.37;;;;;;;-146.64;100.00;40140.13;5024910;28;20060;-78
2021/12/31 05:58:56;;;;;;;5.77;2.60;;;;;;;-146.64;100.00;40127.84;5022906;28;20064;-77
2021/12/31 06:01:21;;;;;;;6.17;2.40;;;;;;;-146.64;100.00;40037.78;5023103;28;20096;-77
2021/12/31 06:03:47;;;;;;;7.90;2.33;;;;;;;-146.64;100.00;40140.13;5008785;28;20043;-77
2021/12/31 06:06:12;;;;;;;5.80;1.97;;;;;;;-146.64;100.00;40127.84;5003045;28;20029;-78
2021/12/31 06:08:38;;;;;;;4.73;2.40;;;;;;;-146.64;100.00;40156.50;5024024;28;20057;-77
2021/12/31 06:11:03;;;;;;;6.00;2.47;;;;;;;-146.64;100.00;40183.13;5034060;28;20064;-78
2021/12/31 06:13:29;;;;;;;4.57;2.13;;;;;;;-146.64;100.00;40127.84;5023812;28;20116;-78
2021/12/31 06:15:57;;;;;;;6.00;2.83;;;;;;;-146.64;100.00;40166.75;5020546;28;20056;-77
2021/12/31 06:18:25;;;;;;;9.98;2.65;;;;;;;-146.64;100.00;40164.72;5032304;28;20059;-78
2021/12/31 06:20:50;;;;;;;5.82;2.40;;;;;;;-146.64;100.00;40238.41;5034456;28;20037;-79
2021/12/31 06:23:16;;;;;;;8.23;2.33;;;;;;;-146.64;100.00;40215.88;5007194;28;20029;-79
2021/12/31 06:25:42;;;;;;;8.97;2.60;;;;;;;-146.64;100.00;40262.97;5016699;28;20051;-79
2021/12/31 06:28:08;;;;;;;12.43;2.88;;;;;;;-146.64;100.00;40285.47;5030257;28;20033;-79
2021/12/31 06:30:34;;;;;;;4.13;2.20;;;;;;;-146.64;100.00;40299.81;5023886;28;20060;-79
2021/12/31 06:33:00;;;;;;;6.97;3.22;;;;;;;-146.64;100.00;40287.53;5043176;28;20029;-79
2021/12/31 06:35:26;;;;;;;5.57;2.43;;;;;;;-146.64;100.00;40262.97;5053536;28;20036;-80
2021/12/31 06:37:54;;;;;;;8.30;2.92;;;;;;;-146.64;100.00;40324.38;5011809;28;20040;-79
2021/12/31 06:40:20;;;;;;;5.78;2.78;;;;;;;-146.64;100.00;40254.78;5019165;28;20044;-78
2021/12/31 06:42:45;;;;;;;11.87;2.80;;;;;;;-146.64;100.00;40230.22;5011066;28;20092;-79
2021/12/31 06:45:11;;;;;;;8.47;3.30;;;;;;;-146.64;100.00;40217.94;5044001;28;20047;-79
2021/12/31 06:47:36;;;;;;;5.00;2.50;;;;;;;-146.64;100.00;40283.44;5043708;28;20037;-81
2021/12/31 06:50:03;;;;;;;7.63;2.83;;;;;;;-146.64;100.00;40203.59;5025620;28;20044;-79
2021/12/31 06:52:28;;;;;;;8.50;2.42;;;;;;;-146.64;100.00;40271.16;5012841;28;20032;-79
2021/12/31 06:54:54;;;;;;;5.95;2.80;;;;;;;-146.64;100.00;40271.16;4997603;28;20097;-79
2021/12/31 06:57:20;;;;;;;3.73;2.70;;;;;;;-146.64;100.00;40197.47;5041539;28;20473;-79
2021/12/31 06:59:46;;;;;;;6.93;2.33;;;;;;;-146.64;100.00;40267.06;5016155;28;20060;-79
2021/12/31 07:02:12;;;;;;;9.10;2.20;;;;;;;-146.64;100.00;40209.75;5011004;28;20048;-79
2021/12/31 07:04:38;;;;;;;10.68;2.72;;;;;;;-146.64;100.00;40238.41;5011051;28;20076;-79
2021/12/31 07:07:03;;;;;;;7.10;2.20;;;;;;;-146.64;100.00;40213.84;5027221;28;20025;-79
2021/12/31 07:09:30;;;;;;;5.50;2.23;;;;;;;-146.64;100.00;40187.22;5024115;28;20073;-79
2021/12/31 07:11:55;;;;;;;8.45;2.25;;;;;;;-146.64;100.00;40205.66;5007676;28;20029;-79
2021/12/31 07:14:22;;;;;;;6.77;2.33;;;;;;;-146.64;100.00;40136.03;5015556;28;20022;-79
2021/12/31 07:16:48;;;;;;;5.82;2.50;;;;;;;-146.64;100.00;40136.03;5023829;28;20033;-79
2021/12/31 07:19:13;;;;;;;6.23;2.90;;;;;;;-146.64;100.00;40156.50;5023117;28;20033;-79
2021/12/31 07:21:39;;;;;;;7.20;2.80;;;;;;;-146.64;100.00;40111.47;5011803;28;20034;-79
2021/12/31 07:24:04;;;;;;;7.67;2.60;;;;;;;-146.64;100.00;40082.81;5013758;28;20060;-79
2021/12/31 07:26:30;;;;;;;7.97;2.27;;;;;;;-146.64;100.00;40115.56;5030948;28;20501;-78
2021/12/31 07:28:55;;;;;;;5.88;2.40;;;;;;;-146.64;100.00;40131.94;5017052;28;20034;-78
2021/12/31 07:31:20;;;;;;;7.40;2.40;;;;;;;-146.64;100.00;40099.19;5026632;28;20419;-79
2021/12/31 07:33:46;;;;;;;7.40;2.77;;;;;;;-146.64;100.00;40134.00;5012129;28;20034;-79
2021/12/31 07:36:11;;;;;;;5.28;2.38;;;;;;;-146.64;100.00;40103.28;5002539;28;20045;-78
2021/12/31 07:38:40;;;;;;;6.00;2.40;;;;;;;-146.64;100.00;40111.47;5019478;28;20041;-77
2021/12/31 07:41:06;;;;;;;7.75;2.83;;;;;;;-146.64;100.00;40119.66;5007638;28;20048;-75
2021/12/31 07:43:32;;;;;;;6.82;3.03;;;;;;;-146.64;100.00;40119.66;5008493;28;20029;-75
2021/12/31 07:45:58;;;;;;;5.03;2.17;;;;;;;-146.64;100.00;40084.88;5007886;28;20076;-76
2021/12/31 07:48:24;;;;;;;5.10;2.28;;;;;;;-146.64;100.00;40050.06;5024828;28;20033;-75
2021/12/31 07:50:51;;;;;;;5.67;2.80;;;;;;;-146.64;100.00;40062.34;5008801;28;20823;-75
2021/12/31 07:53:16;;;;;;;;;;;;;;;-146.64;100.00;40066.44;4998534;28;20113;-74
2021/12/31 07:55:43;;;;;;;5.30;2.80;;;;;;;-146.64;100.00;40127.84;5025677;28;19960;-75
2021/12/31 07:58:08;;;;;;;;;;;;;;;-146.64;100.00;40086.91;5021425;28;20116;-75
2021/12/31 08:00:34;;;;;;;6.57;2.75;;;;;;;-146.64;100.00;40111.47;5008482;28;20361;-75
2021/12/31 08:03:02;;;;;;;9.20;3.40;;;;;;;-146.64;100.00;40131.94;5018566;28;20030;-75
2021/12/31 08:05:28;;;;;;;8.75;2.60;;;;;;;-146.64;100.00;39962.06;5010060;28;20022;-75
2021/12/31 08:07:54;;;;;;;5.40;2.60;;;;;;;-146.64;100.00;40136.03;5019989;28;20041;-76
2021/12/31 08:10:20;;;;;;;9.77;2.63;;;;;;;-146.64;100.00;40136.03;5003081;28;20089;-76
2021/12/31 08:12:46;;;;;;;6.85;2.40;;;;;;;-146.64;100.00;40088.97;5038773;28;20029;-75
2021/12/31 08:15:16;;;;;;;9.83;3.23;;;;;;;-146.64;100.00;40086.91;5013596;28;20045;-75
2021/12/31 08:17:41;;;;;;;7.47;2.53;;;;;;;-146.64;100.00;40140.13;5041183;28;20025;-75
2021/12/31 08:20:07;;;;;;;11.80;2.50;;;;;;;-146.64;100.00;40142.19;4994945;28;20083;-75
2021/12/31 08:22:34;;;;;;;12.27;2.60;;;;;;;-146.64;100.00;40082.81;5043743;28;20041;-75
2021/12/31 08:24:59;;;;;;;6.10;2.90;;;;;;;-146.64;100.00;40152.41;5025604;28;20025;-76
2021/12/31 08:27:24;;;;;;;5.83;2.80;;;;;;;-146.64;100.00;40072.59;5027891;28;20485;-75
2021/12/31 08:29:50;;;;;;;7.50;3.00;;;;;;;-146.64;100.00;40095.09;5010313;28;20033;-75
2021/12/31 08:32:15;;;;;;;8.73;2.97;;;;;;;-146.64;100.00;40115.56;5024549;28;20025;-74
2021/12/31 08:34:42;;;;;;;8.00;2.53;;;;;;;-146.64;100.00;39968.19;5039747;28;20040;-74
2021/12/31 08:37:07;;;;;;;10.07;2.92;;;;;;;-146.64;100.00;40095.09;5008973;28;20099;-75
2021/12/31 08:39:33;;;;;;;10.10;3.50;;;;;;;-146.64;100.00;40025.50;5023611;28;20026;-74
2021/12/31 08:42:03;;;;;;;6.80;2.53;;;;;;;-146.64;100.00;40078.72;5025445;28;20040;-74
2021/12/31 08:44:28;;;;;;;5.35;2.40;;;;;;;-146.64;100.00;40091.00;4992897;28;20101;-75
2021/12/31 08:46:54;;;;;;;8.20;3.10;;;;;;;-146.64;100.00;40136.03;5025824;28;20075;-75
2021/12/31 08:49:19;;;;;;;6.03;2.83;;;;;;;-146.64;100.00;40058.25;4993476;28;20049;-75
2021/12/31 08:51:45;;;;;;;8.90;2.83;;;;;;;-146.64;100.00;40082.81;5027860;28;20111;-75
2021/12/31 08:54:10;;;;;;;5.40;2.87;;;;;;;-146.64;100.00;40086.91;5015672;28;20029;-76
2021/12/31 08:56:36;;;;;;;7.50;2.50;;;;;;;-146.64;100.00;40115.56;5040065;28;20068;-78
2021/12/31 08:59:03;;;;;;;10.03;3.13;;;;;;;-146.64;100.00;40095.09;5005612;28;20029;-77
2021/12/31 09:01:28;;;;;;;;;;;;;;;-146.64;100.00;40107.38;4997763;28;20026;-78
2021/12/31 09:03:54;;;;;;;4.47;2.90;;;;;;;-146.64;100.00;40119.66;5013177;28;19913;-78
2021/12/31 09:06:19;;;;;;;7.93;3.10;;;;;;;-146.64;100.00;40082.81;4993749;28;20029;-76
2021/12/31 09:08:46;;;;;;;6.17;2.50;;;;;;;-146.64;100.00;40064.41;5019019;28;20045;-77
2021/12/31 09:11:12;;;;;;;11.10;3.10;;;;;;;-146.64;100.00;40025.50;5045062;28;20037;-78
2021/12/31 09:13:37;;;;;;;7.07;2.42;;;;;;;-146.64;100.00;39992.75;5022625;28;20093;-77
2021/12/31 09:16:03;;;;;;;10.07;3.37;;;;;;;-146.64;100.00;40029.59;5046287;28;20038;-78
2021/12/31 09:18:30;;;;;;;8.57;3.10;;;;;;;-146.64;100.00;40025.50;5029280;28;20033;-77
2021/12/31 09:20:55;;;;;;;8.07;3.42;;;;;;;-146.64;100.00;40041.88;5046712;28;20355;-78
2021/12/31 09:23:21;;;;;;;5.20;2.97;;;;;;;-146.64;100.00;40045.97;5013303;28;20076;-77
2021/12/31 09:25:49;;;;;;;12.37;3.60;;;;;;;-146.64;100.00;40041.88;5012734;28;20029;-79
2021/12/31 09:28:15;;;;;;;7.30;3.22;;;;;;;-146.64;100.00;40060.31;5023869;28;20915;-78
2021/12/31 09:30:42;;;;;;;8.70;3.08;;;;;;;-146.64;100.00;40070.53;5029658;28;20540;-78
2021/12/31 09:33:08;;;;;;;7.22;2.80;;;;;;;-146.64;100.00;40013.22;5028458;28;20105;-78
2021/12/31 09:35:33;;;;;;;4.90;2.70;;;;;;;-146.64;100.00;40050.06;5012557;28;20330;-78
2021/12/31 09:38:00;;;;;;;7.93;3.43;;;;;;;-146.64;100.00;40060.31;5012358;28;20064;-78
2021/12/31 09:40:26;;;;;;;8.25;2.90;;;;;;;-146.64;100.00;40062.34;5044887;28;20108;-78
2021/12/31 09:43:01;;;;;;;6.55;2.75;;;;;;;-146.64;100.00;40058.25;5028570;28;20112;-79
2021/12/31 09:45:27;;;;;;;8.88;3.47;;;;;;;-146.64;100.00;40095.09;5045763;28;20033;-78
2021/12/31 09:47:58;;;;;;;7.57;3.40;;;;;;;-146.64;100.00;40095.09;5024551;28;20090;-78
2021/12/31 09:50:23;;;;;;;5.47;3.20;;;;;;;-146.64;100.00;40086.91;5008621;28;20030;-78
2021/12/31 09:52:49;;;;;;;9.53;3.43;;;;;;;-146.64;100.00;40082.81;5020375;28;20040;-79
2021/12/31 09:55:33;;;;;;;5.63;3.00;;;;;;;-146.64;100.00;40111.47;5012822;28;20034;-79
2021/12/31 09:57:59;;;;;;;9.77;3.35;;;;;;;-146.64;100.00;40103.28;5006421;28;20032;-77
2021/12/31 10:00:26;;;;;;;11.63;3.73;;;;;;;-146.64;100.00;40091.00;5025698;28;20470;-78
2021/12/31 10:03:18;;;;;;;7.25;3.38;;;;;;;-146.64;100.00;40045.97;5020360;28;20109;-77
2021/12/31 10:05:46;;;;;;;9.93;3.78;;;;;;;-146.64;100.00;40009.13;5040401;28;20021;-78
2021/12/31 10:08:19;;;;;;;13.18;4.85;;;;;;;-146.64;100.00;39998.91;5025538;28;20065;-78
2021/12/31 10:11:04;;;;;;;10.15;4.53;;;;;;;-146.64;100.00;40031.66;5033681;28;20029;-77
2021/12/31 10:13:31;;;;;;;10.80;3.30;;;;;;;-146.64;100.00;40017.31;5030401;28;20034;-78
2021/12/31 10:15:56;;;;;;;7.35;3.30;;;;;;;-146.64;100.00;40017.31;5028220;28;20048;-77
2021/12/31 10:18:37;;;;;;;8.25;4.07;;;;;;;-146.64;100.00;40045.97;5027775;28;20037;-79
2021/12/31 10:21:05;;;;;;;5.30;3.08;;;;;;;-146.64;100.00;40029.59;5033243;28;20032;-78
2021/12/31 10:23:32;;;;;;;9.85;3.67;;;;;;;-146.64;100.00;40017.31;5027412;28;20025;-78
2021/12/31 10:26:07;;;;;;;9.52;4.03;;;;;;;-146.64;100.00;39976.38;5026565;28;20033;-78
2021/12/31 10:28:33;;;;;;;6.63;3.38;;;;;;;-146.64;100.00;39992.75;5022187;28;20124;-75
2021/12/31 10:31:18;;;;;;;5.57;3.30;;;;;;;-146.64;100.00;39931.34;5015114;28;20030;-75
2021/12/31 10:33:46;;;;;;;9.00;3.72;;;;;;;-146.64;100.00;39919.06;5021797;28;20033;-76
2021/12/31 10:36:36;;;;;;;6.45;3.88;;;;;;;-146.64;100.00;39894.50;5024413;28;20029;-75
2021/12/31 10:39:17;;;;;;;7.78;3.53;;;;;;;-146.64;100.00;39876.09;5045272;28;20088;-75
2021/12/31 10:41:48;;;;;;;7.72;3.42;;;;;;;-146.64;100.00;39824.91;5006678;28;20053;-75
2021/12/31 10:44:16;;;;;;;12.15;3.50;;;;;;;-146.64;100.00;39743.03;5024151;28;20030;-75
2021/12/31 10:46:43;;;;;;;9.88;3.50;;;;;;;-146.64;100.00;39693.91;5043634;28;20029;-75
2021/12/31 10:49:11;;;;;;;7.75;4.13;;;;;;;-146.64;100.00;39657.06;5008300;28;20029;-76
2021/12/31 10:51:42;;;;;;;6.80;3.72;;;;;;;-146.64;100.00;39693.91;5007555;28;20034;-76
2021/12/31 10:56:57;;;;;;;7.15;3.40;;;;;;;-146.64;100.00;39661.16;5037225;28;20093;-76
2021/12/31 10:59:25;;;;;;;9.27;3.00;;;;;;;-146.64;100.00;39714.38;5024929;28;20048;-76
2021/12/31 11:01:51;;;;;;;8.50;3.42;;;;;;;-146.64;100.00;39693.91;4995488;28;20056;-76
2021/12/31 11:04:20;;;;;;;9.55;3.35;;;;;;;-146.64;100.00;39714.38;5008638;28;20087;-75
2021/12/31 11:06:46;;;;;;;9.63;3.50;;;;;;;-146.64;100.00;39640.69;5034012;28;20030;-75
2021/12/31 11:09:13;;;;;;;9.27;3.27;;;;;;;-146.64;100.00;39607.94;5018412;28;20131;-75
2021/12/31 11:11:41;;;;;;;8.80;3.58;;;;;;;-146.64;100.00;39562.91;5004472;28;20026;-76
2021/12/31 11:14:07;;;;;;;7.85;3.47;;;;;;;-146.64;100.00;39577.25;5009962;28;20041;-76